createdAt,value
2023-04-27T00:02:21.909Z,7.13
2023-04-27T00:05:25.082Z,7.28
2023-04-27T00:08:28.209Z,8.30
2023-04-27T00:11:31.143Z,8.03
2023-04-27T00:14:34.117Z,8.60
2023-04-27T00:17:37.667Z,8.25
2023-04-27T00:20:40.926Z,8.15
2023-04-27T00:23:44.191Z,8.13
2023-04-27T00:26:47.158Z,8.77
2023-04-27T00:29:50.109Z,7.57
2023-04-27T00:32:53.086Z,7.90
2023-04-27T00:35:59.308Z,8.32
2023-04-27T00:39:03.081Z,7.40
2023-04-27T00:42:15.166Z,8.50
2023-04-27T00:45:18.083Z,9.40
2023-04-27T00:48:21.064Z,10.85
2023-04-27T00:51:28.071Z,7.60
2023-04-27T00:54:31.655Z,9.70
2023-04-27T00:57:34.723Z,9.80
2023-04-27T01:00:37.784Z,8.18
2023-04-27T01:03:40.961Z,9.38
2023-04-27T01:06:44.135Z,11.13
2023-04-27T01:09:47.217Z,11.07
2023-04-27T01:12:52.092Z,10.63
2023-04-27T01:15:55.013Z,10.65
2023-04-27T01:18:58.066Z,11.23
2023-04-27T01:22:01.032Z,11.80
2023-04-27T01:25:04.127Z,9.52
2023-04-27T01:28:08.347Z,11.47
2023-04-27T01:31:13.598Z,8.38
2023-04-27T01:34:16.765Z,8.85
2023-04-27T01:37:23.551Z,8.68
2023-04-27T01:40:26.985Z,9.50
2023-04-27T01:43:31.394Z,9.17
2023-04-27T01:46:34.428Z,10.95
2023-04-27T01:49:37.392Z,10.98
2023-04-27T01:52:40.394Z,10.80
2023-04-27T01:55:43.305Z,10.80
2023-04-27T01:58:46.354Z,11.13
2023-04-27T02:01:49.820Z,10.70
2023-04-27T02:04:52.955Z,7.85
2023-04-27T02:07:56.099Z,9.30
2023-04-27T02:10:59.021Z,10.70
2023-04-27T02:14:02.000Z,7.87
2023-04-27T02:17:07.950Z,7.47
2023-04-27T02:20:11.410Z,9.85
2023-04-27T02:23:14.357Z,7.50
2023-04-27T02:26:20.467Z,7.70
2023-04-27T02:29:23.499Z,7.00
2023-04-27T02:32:27.291Z,8.43
2023-04-27T02:35:32.560Z,8.27
2023-04-27T02:38:36.300Z,6.60
2023-04-27T02:41:39.258Z,7.60
2023-04-27T02:44:42.234Z,8.07
2023-04-27T02:47:45.256Z,7.50
2023-04-27T02:50:49.913Z,8.48
2023-04-27T02:53:55.337Z,9.60
2023-04-27T02:56:58.508Z,8.93
2023-04-27T03:00:02.756Z,6.70
2023-04-27T03:03:07.696Z,9.80
2023-04-27T03:06:10.840Z,9.52
2023-04-27T03:09:14.046Z,8.48
2023-04-27T03:12:17.231Z,9.05
2023-04-27T03:15:20.177Z,8.73
2023-04-27T03:18:23.145Z,12.23
2023-04-27T03:21:27.007Z,9.88
2023-04-27T03:24:29.965Z,15.68
2023-04-27T03:27:32.931Z,10.25
2023-04-27T03:30:35.969Z,7.33
2023-04-27T03:33:38.976Z,9.65
2023-04-27T03:36:42.120Z,7.88
2023-04-27T03:39:46.451Z,7.93
2023-04-27T03:42:49.617Z,7.43
2023-04-27T03:45:53.099Z,9.00
2023-04-27T03:48:56.317Z,7.72
2023-04-27T03:51:59.522Z,8.13
2023-04-27T03:55:02.471Z,8.05
2023-04-27T03:58:05.613Z,9.75
2023-04-27T04:01:10.221Z,9.40
2023-04-27T04:04:13.614Z,8.85
2023-04-27T04:07:18.291Z,7.78
2023-04-27T04:10:21.649Z,8.18
2023-04-27T04:13:27.106Z,10.50
2023-04-27T04:16:30.160Z,11.70
2023-04-27T04:19:33.911Z,8.27
2023-04-27T04:22:38.070Z,8.93
2023-04-27T04:25:41.679Z,10.05
2023-04-27T04:28:44.674Z,8.63
2023-04-27T04:31:47.739Z,8.93
2023-04-27T04:34:51.347Z,8.60
2023-04-27T04:37:56.222Z,11.82
2023-04-27T04:40:59.243Z,8.27
2023-04-27T04:44:03.202Z,8.05
2023-04-27T04:47:06.534Z,8.30
2023-04-27T04:50:10.348Z,8.85
2023-04-27T04:53:13.289Z,8.23
2023-04-27T04:56:17.029Z,8.75
2023-04-27T04:59:19.956Z,10.68
2023-04-27T05:02:23.072Z,10.50
2023-04-27T05:05:26.140Z,9.15
2023-04-27T05:08:29.174Z,9.10
2023-04-27T05:11:32.362Z,12.13
2023-04-27T05:14:35.740Z,12.93
2023-04-27T05:17:38.719Z,9.13
2023-04-27T05:20:41.650Z,8.23
2023-04-27T05:23:44.632Z,11.25
2023-04-27T05:26:47.627Z,10.07
2023-04-27T05:29:50.590Z,9.45
2023-04-27T05:32:53.681Z,7.73
2023-04-27T05:35:56.707Z,8.60
2023-04-27T05:38:59.673Z,10.48
2023-04-27T05:42:03.042Z,8.23
2023-04-27T05:45:06.608Z,8.85
2023-04-27T05:48:09.520Z,9.90
2023-04-27T05:51:12.525Z,8.40
2023-04-27T05:54:15.576Z,7.20
2023-04-27T05:57:18.501Z,7.30
2023-04-27T06:00:22.643Z,8.98
2023-04-27T06:03:26.252Z,9.10
2023-04-27T06:06:33.109Z,7.25
2023-04-27T06:09:36.987Z,7.72
2023-04-27T06:12:40.019Z,7.80
2023-04-27T06:15:43.180Z,8.98
2023-04-27T06:18:46.238Z,8.63
2023-04-27T06:21:50.209Z,10.05
2023-04-27T06:24:53.168Z,7.47
2023-04-27T06:27:56.805Z,9.50
2023-04-27T06:30:59.787Z,8.32
2023-04-27T06:34:02.829Z,8.73
2023-04-27T06:37:05.979Z,7.68
2023-04-27T06:40:09.590Z,7.03
2023-04-27T06:43:12.539Z,10.68
2023-04-27T06:46:15.676Z,8.98
2023-04-27T06:49:18.689Z,13.33
2023-04-27T06:52:22.099Z,10.32
2023-04-27T06:55:25.345Z,8.25
2023-04-27T06:58:28.322Z,8.95
2023-04-27T07:01:31.354Z,9.18
2023-04-27T07:04:34.764Z,9.60
2023-04-27T07:07:37.819Z,6.53
2023-04-27T07:10:41.260Z,6.80
2023-04-27T07:13:44.418Z,9.82
2023-04-27T07:16:47.800Z,6.93
2023-04-27T07:19:51.432Z,10.03
2023-04-27T07:22:54.540Z,10.18
2023-04-27T07:26:00.713Z,7.22
2023-04-27T07:29:11.111Z,6.63
2023-04-27T07:32:17.911Z,7.18
2023-04-27T07:35:23.436Z,9.90
2023-04-27T07:38:26.596Z,6.28
2023-04-27T07:41:30.744Z,5.63
2023-04-27T07:44:33.743Z,7.35
2023-04-27T07:47:37.234Z,11.20
2023-04-27T07:50:40.221Z,7.67
2023-04-27T07:53:43.302Z,8.60
2023-04-27T07:56:46.335Z,8.23
2023-04-27T07:59:49.367Z,9.02
2023-04-27T08:02:54.036Z,11.32
2023-04-27T08:05:57.531Z,9.70
2023-04-27T08:09:02.092Z,6.90
2023-04-27T08:12:05.453Z,6.13
2023-04-27T08:15:08.982Z,8.40
2023-04-27T08:18:11.948Z,8.57
2023-04-27T08:21:15.072Z,6.20
2023-04-27T08:24:18.089Z,7.03
2023-04-27T08:27:21.089Z,7.28
2023-04-27T08:30:24.147Z,8.45
2023-04-27T08:33:27.180Z,6.63
2023-04-27T08:36:30.824Z,9.83
2023-04-27T08:39:33.781Z,6.57
2023-04-27T08:42:36.971Z,7.85
2023-04-27T08:45:39.971Z,5.22
2023-04-27T08:48:43.072Z,5.53
2023-04-27T08:51:47.111Z,8.13
2023-04-27T08:54:50.110Z,7.15
2023-04-27T08:58:01.294Z,5.40
2023-04-27T09:01:07.892Z,8.20
2023-04-27T09:04:12.356Z,6.20
2023-04-27T09:07:16.723Z,6.93
2023-04-27T09:10:19.680Z,5.40
2023-04-27T09:13:22.676Z,7.82
2023-04-27T09:16:28.192Z,5.68
2023-04-27T09:19:31.811Z,5.65
2023-04-27T09:22:49.801Z,5.37
2023-04-27T09:25:52.776Z,4.88
2023-04-27T09:28:58.950Z,6.03
2023-04-27T09:32:02.083Z,7.57
2023-04-27T09:35:06.033Z,5.57
2023-04-27T09:38:08.992Z,10.47
2023-04-27T09:41:12.180Z,9.18
2023-04-27T09:44:15.134Z,6.25
2023-04-27T09:47:18.065Z,7.90
2023-04-27T09:50:22.110Z,7.25
2023-04-27T09:53:31.987Z,6.17
2023-04-27T09:57:02.574Z,5.72
2023-04-27T10:00:14.766Z,9.60
2023-04-27T10:04:00.342Z,6.88
2023-04-27T10:07:08.786Z,6.15
2023-04-27T10:10:23.232Z,5.37
2023-04-27T10:13:27.147Z,6.82
2023-04-27T10:16:30.405Z,7.70
2023-04-27T10:19:33.544Z,6.20
2023-04-27T10:22:48.562Z,8.00
2023-04-27T10:26:01.005Z,5.77
2023-04-27T10:29:19.871Z,8.00
2023-04-27T10:32:27.966Z,7.28
2023-04-27T10:35:38.157Z,6.95
2023-04-27T10:38:45.334Z,5.63
2023-04-27T10:41:55.016Z,7.10
2023-04-27T10:44:58.470Z,8.27
2023-04-27T10:48:02.177Z,5.78
2023-04-27T10:51:10.702Z,5.35
2023-04-27T10:54:13.845Z,7.43
2023-04-27T10:57:16.890Z,6.70
2023-04-27T11:00:27.935Z,7.32
2023-04-27T11:03:31.670Z,6.95
2023-04-27T11:06:45.237Z,6.07
2023-04-27T11:09:49.873Z,7.28
2023-04-27T11:12:52.860Z,7.93
2023-04-27T11:15:57.567Z,8.32
2023-04-27T11:19:06.799Z,7.50
2023-04-27T11:22:09.796Z,6.68
2023-04-27T11:25:12.916Z,6.88
2023-04-27T11:28:22.591Z,6.60
2023-04-27T11:31:29.115Z,7.63
2023-04-27T11:34:38.959Z,5.72
2023-04-27T11:37:42.460Z,5.53
2023-04-27T11:41:08.861Z,7.78
2023-04-27T11:44:12.519Z,6.47
2023-04-27T11:47:23.003Z,6.18
2023-04-27T11:50:26.792Z,6.40
2023-04-27T11:53:36.852Z,5.30
2023-04-27T11:56:43.164Z,6.93
2023-04-27T11:59:46.485Z,8.13
2023-04-27T12:02:49.627Z,6.13
2023-04-27T12:05:53.027Z,7.13
2023-04-27T12:08:57.205Z,9.43
2023-04-27T12:12:00.286Z,5.85
2023-04-27T12:15:03.464Z,5.53
2023-04-27T12:18:06.988Z,5.50
2023-04-27T12:21:10.305Z,8.18
2023-04-27T12:24:13.525Z,7.15
2023-04-27T12:27:16.920Z,6.65
2023-04-27T12:30:19.898Z,7.43
2023-04-27T12:33:23.169Z,6.55
2023-04-27T12:36:27.359Z,6.13
2023-04-27T12:39:30.424Z,5.80
2023-04-27T12:42:33.512Z,6.40
2023-04-27T12:45:36.744Z,6.57
2023-04-27T12:48:39.923Z,7.47
2023-04-27T12:51:43.121Z,8.00
2023-04-27T12:54:46.749Z,9.98
2023-04-27T12:57:49.687Z,9.75
2023-04-27T13:00:52.652Z,6.00
2023-04-27T13:03:56.180Z,7.07
2023-04-27T13:07:03.372Z,8.02
2023-04-27T13:10:06.829Z,6.97
2023-04-27T13:13:09.898Z,6.32
2023-04-27T13:16:13.234Z,8.17
2023-04-27T13:19:16.247Z,9.57
2023-04-27T13:22:21.024Z,8.20
2023-04-27T13:25:24.243Z,8.45
2023-04-27T13:28:27.218Z,6.03
2023-04-27T13:31:31.942Z,5.83
2023-04-27T13:34:34.943Z,7.43
2023-04-27T13:37:38.676Z,7.93
2023-04-27T13:40:41.847Z,10.25
2023-04-27T13:43:44.805Z,6.75
2023-04-27T13:46:47.832Z,6.10
2023-04-27T13:49:55.936Z,5.63
2023-04-27T13:52:58.975Z,9.57
2023-04-27T13:56:01.906Z,8.45
2023-04-27T13:59:04.919Z,6.75
2023-04-27T14:02:08.436Z,6.47
2023-04-27T14:05:11.452Z,5.38
2023-04-27T14:08:14.398Z,5.70
2023-04-27T14:11:19.043Z,6.72
2023-04-27T14:14:22.384Z,6.35
2023-04-27T14:17:25.681Z,8.50
2023-04-27T14:20:29.127Z,6.28
2023-04-27T14:23:32.153Z,8.43
2023-04-27T14:26:35.105Z,5.95
2023-04-27T14:29:38.038Z,8.73
2023-04-27T14:32:41.855Z,7.33
2023-04-27T14:35:44.862Z,6.57
2023-04-27T14:38:47.810Z,8.60
2023-04-27T14:41:51.417Z,6.18
2023-04-27T14:44:56.967Z,6.18
2023-04-27T14:48:00.510Z,5.80
2023-04-27T14:51:03.657Z,7.85
2023-04-27T14:54:07.995Z,6.57
2023-04-27T14:57:11.073Z,7.00
2023-04-27T15:00:14.702Z,5.82
2023-04-27T15:03:17.866Z,7.60
2023-04-27T15:06:22.083Z,7.13
2023-04-27T15:09:25.040Z,7.28
2023-04-27T15:12:28.057Z,8.88
2023-04-27T15:15:31.111Z,8.68
2023-04-27T15:18:35.326Z,8.10
2023-04-27T15:21:38.276Z,7.75
2023-04-27T15:24:41.401Z,7.28
2023-04-27T15:27:44.370Z,8.60
2023-04-27T15:30:47.346Z,7.85
2023-04-27T15:33:50.278Z,7.30
2023-04-27T15:36:53.199Z,6.30
2023-04-27T15:39:56.505Z,5.30
2023-04-27T15:42:59.476Z,5.22
2023-04-27T15:46:05.537Z,6.03
2023-04-27T15:49:08.649Z,7.27
2023-04-27T15:52:11.612Z,6.18
2023-04-27T15:55:14.981Z,8.18
2023-04-27T15:58:17.950Z,5.57
2023-04-27T16:01:21.110Z,6.10
2023-04-27T16:04:24.280Z,7.77
2023-04-27T16:07:27.215Z,8.77
2023-04-27T16:10:30.208Z,5.90
2023-04-27T16:13:33.166Z,6.25
2023-04-27T16:16:36.367Z,6.63
2023-04-27T16:19:39.384Z,7.13
2023-04-27T16:22:42.358Z,7.68
2023-04-27T16:25:45.727Z,6.55
2023-04-27T16:28:48.984Z,6.80
2023-04-27T16:31:52.630Z,7.78
2023-04-27T16:34:55.909Z,5.97
2023-04-27T16:37:58.875Z,6.65
2023-04-27T16:41:01.858Z,5.47
2023-04-27T16:44:04.871Z,8.82
2023-04-27T16:47:07.991Z,6.28
2023-04-27T16:50:11.497Z,8.00
2023-04-27T16:53:15.078Z,8.00
2023-04-27T16:56:27.150Z,6.93
2023-04-27T16:59:30.783Z,9.50
2023-04-27T17:02:34.076Z,6.65
2023-04-27T17:05:37.142Z,7.33
2023-04-27T17:08:40.082Z,7.43
2023-04-27T17:11:43.138Z,10.95
2023-04-27T17:14:46.440Z,11.30
2023-04-27T17:17:49.474Z,10.63
2023-04-27T17:20:53.204Z,7.83
2023-04-27T17:23:56.200Z,10.02
2023-04-27T17:26:59.119Z,10.45
2023-04-27T17:30:02.093Z,9.93
2023-04-27T17:33:05.316Z,9.65
2023-04-27T17:36:08.471Z,5.57
2023-04-27T17:39:13.285Z,10.10
2023-04-27T17:42:16.520Z,7.97
2023-04-27T17:45:19.545Z,6.55
2023-04-27T17:48:22.523Z,8.73
2023-04-27T17:51:25.934Z,8.07
2023-04-27T17:54:30.080Z,9.38
2023-04-27T17:57:33.755Z,8.15
2023-04-27T18:00:36.773Z,9.18
2023-04-27T18:03:41.919Z,8.05
2023-04-27T18:06:45.200Z,9.93
2023-04-27T18:09:48.143Z,17.92
2023-04-27T18:12:51.574Z,17.30
2023-04-27T18:15:54.526Z,14.27
2023-04-27T18:18:57.515Z,16.65
2023-04-27T18:22:00.477Z,17.13
2023-04-27T18:25:03.529Z,18.15
2023-04-27T18:28:06.624Z,16.02
2023-04-27T18:31:18.762Z,13.68
2023-04-27T18:34:21.817Z,12.80
2023-04-27T18:37:24.814Z,13.00
2023-04-27T18:40:27.781Z,13.93
2023-04-27T18:43:31.250Z,12.65
2023-04-27T18:46:34.256Z,13.95
2023-04-27T18:49:37.204Z,11.35
2023-04-27T18:52:40.484Z,13.20
2023-04-27T18:55:43.524Z,16.42
2023-04-27T18:58:48.564Z,14.20
2023-04-27T19:01:51.720Z,13.50
2023-04-27T19:05:11.427Z,17.15
2023-04-27T19:08:15.700Z,13.80
2023-04-27T19:11:22.279Z,13.93
2023-04-27T19:14:25.969Z,15.55
2023-04-27T19:17:28.985Z,14.18
2023-04-27T19:20:32.049Z,15.50
2023-04-27T19:23:34.973Z,20.40
2023-04-27T19:26:38.108Z,18.25
2023-04-27T19:29:59.214Z,24.08
2023-04-27T19:33:02.321Z,15.20
2023-04-27T19:36:05.663Z,15.82
2023-04-27T19:39:08.601Z,14.00
2023-04-27T19:42:11.720Z,14.40
2023-04-27T19:45:15.484Z,11.38
2023-04-27T19:48:18.444Z,12.55
2023-04-27T19:51:21.427Z,11.88
2023-04-27T19:54:24.397Z,15.97
2023-04-27T19:57:27.291Z,22.20
2023-04-27T20:00:30.604Z,21.05
2023-04-27T20:03:35.459Z,24.58
2023-04-27T20:06:40.758Z,20.65
2023-04-27T20:09:43.780Z,19.40
2023-04-27T20:12:56.187Z,18.67
2023-04-27T20:15:59.932Z,34.15
2023-04-27T20:19:05.262Z,46.25
2023-04-27T20:22:08.430Z,43.72
2023-04-27T20:25:14.074Z,43.63
2023-04-27T20:28:17.035Z,40.08
2023-04-27T20:31:21.466Z,46.97
2023-04-27T20:34:24.445Z,47.05
2023-04-27T20:37:27.441Z,41.03
2023-04-27T20:40:30.909Z,38.57
2023-04-27T20:43:33.922Z,32.05
2023-04-27T20:46:37.340Z,30.60
2023-04-27T20:49:40.523Z,37.03
2023-04-27T20:52:43.578Z,27.10
2023-04-27T20:55:46.562Z,27.80
2023-04-27T20:58:49.500Z,29.15
2023-04-27T21:01:52.429Z,28.42
2023-04-27T21:04:55.441Z,35.90
2023-04-27T21:07:58.443Z,37.22
2023-04-27T21:11:01.382Z,26.40
2023-04-27T21:14:04.375Z,38.90
2023-04-27T21:17:07.440Z,35.50
2023-04-27T21:20:11.237Z,55.08
2023-04-27T21:23:14.913Z,38.90
2023-04-27T21:26:17.813Z,37.97
2023-04-27T21:29:21.065Z,38.83
2023-04-27T21:32:24.010Z,46.17
2023-04-27T21:35:27.033Z,55.75
2023-04-27T21:38:30.044Z,58.28
2023-04-27T21:41:34.907Z,44.67
2023-04-27T21:44:38.222Z,35.83
2023-04-27T21:47:41.330Z,37.15
2023-04-27T21:50:44.479Z,41.70
2023-04-27T21:53:47.573Z,36.28
2023-04-27T21:56:50.522Z,25.70
2023-04-27T21:59:53.477Z,25.55
2023-04-27T22:02:56.820Z,33.28
2023-04-27T22:05:59.857Z,29.27
2023-04-27T22:09:03.514Z,39.90
2023-04-27T22:12:07.357Z,36.10
2023-04-27T22:15:10.570Z,32.53
2023-04-27T22:18:14.577Z,36.47
2023-04-27T22:21:17.529Z,31.13
2023-04-27T22:24:20.466Z,34.10
2023-04-27T22:27:24.772Z,32.87
2023-04-27T22:30:29.540Z,29.15
2023-04-27T22:33:32.806Z,25.83
2023-04-27T22:36:35.775Z,26.48
2023-04-27T22:39:39.146Z,19.48
2023-04-27T22:42:42.117Z,18.63
2023-04-27T22:45:45.074Z,18.77
2023-04-27T22:48:47.963Z,19.02
2023-04-27T22:51:51.018Z,24.27
2023-04-27T22:54:53.986Z,29.20
2023-04-27T22:57:56.922Z,28.37
2023-04-27T23:00:59.912Z,30.67
2023-04-27T23:04:03.079Z,29.52
2023-04-27T23:07:06.099Z,28.27
2023-04-27T23:10:09.417Z,25.10
2023-04-27T23:13:12.905Z,26.60
2023-04-27T23:16:16.484Z,27.38
2023-04-27T23:19:19.686Z,24.27
2023-04-27T23:22:22.680Z,24.55
2023-04-27T23:25:25.706Z,23.25
2023-04-27T23:28:28.640Z,24.27
2023-04-27T23:31:31.991Z,27.40
2023-04-27T23:34:34.968Z,26.48
2023-04-27T23:37:38.073Z,24.50
2023-04-27T23:40:41.067Z,23.10
2023-04-27T23:43:44.806Z,24.63
2023-04-27T23:46:47.782Z,25.75
2023-04-27T23:49:50.732Z,26.83
2023-04-27T23:52:53.659Z,28.42
2023-04-27T23:55:56.865Z,23.45
2023-04-27T23:58:59.814Z,23.07
